sensor_id;sensor_type;location;lat;lon;timestamp;P1;durP1;ratioP1;P2;durP2;ratioP2
60076;SDS011;45950;45.208;20.374;2022-07-23T00:00:17;4.10;;;3.17;;
60076;SDS011;45950;45.208;20.374;2022-07-23T00:02:44;6.15;;;3.33;;
60076;SDS011;45950;45.208;20.374;2022-07-23T00:05:12;6.95;;;4.38;;
60076;SDS011;45950;45.208;20.374;2022-07-23T00:07:39;7.63;;;5.45;;
60076;SDS011;45950;45.208;20.374;2022-07-23T00:10:06;7.50;;;5.72;;
60076;SDS011;45950;45.208;20.374;2022-07-23T00:12:33;7.43;;;5.80;;
60076;SDS011;45950;45.208;20.374;2022-07-23T00:15:00;5.65;;;4.40;;
60076;SDS011;45950;45.208;20.374;2022-07-23T00:17:27;6.88;;;4.68;;
60076;SDS011;45950;45.208;20.374;2022-07-23T00:19:54;6.85;;;4.30;;
60076;SDS011;45950;45.208;20.374;2022-07-23T00:22:22;6.25;;;4.30;;
60076;SDS011;45950;45.208;20.374;2022-07-23T00:24:49;5.70;;;3.63;;
60076;SDS011;45950;45.208;20.374;2022-07-23T00:27:16;4.00;;;3.30;;
60076;SDS011;45950;45.208;20.374;2022-07-23T00:29:42;6.22;;;3.50;;
60076;SDS011;45950;45.208;20.374;2022-07-23T00:32:09;5.22;;;3.28;;
60076;SDS011;45950;45.208;20.374;2022-07-23T00:34:36;6.85;;;3.67;;
60076;SDS011;45950;45.208;20.374;2022-07-23T00:37:03;4.85;;;2.45;;
60076;SDS011;45950;45.208;20.374;2022-07-23T00:39:31;5.25;;;3.40;;
60076;SDS011;45950;45.208;20.374;2022-07-23T00:41:58;6.18;;;3.17;;
60076;SDS011;45950;45.208;20.374;2022-07-23T00:44:25;6.63;;;3.60;;
60076;SDS011;45950;45.208;20.374;2022-07-23T00:46:53;8.75;;;4.30;;
60076;SDS011;45950;45.208;20.374;2022-07-23T00:49:20;5.55;;;3.70;;
60076;SDS011;45950;45.208;20.374;2022-07-23T00:51:47;5.40;;;3.83;;
60076;SDS011;45950;45.208;20.374;2022-07-23T00:54:14;5.93;;;3.67;;
60076;SDS011;45950;45.208;20.374;2022-07-23T00:56:42;5.00;;;3.42;;
60076;SDS011;45950;45.208;20.374;2022-07-23T00:59:09;6.22;;;4.13;;
60076;SDS011;45950;45.208;20.374;2022-07-23T01:01:36;6.32;;;4.70;;
60076;SDS011;45950;45.208;20.374;2022-07-23T01:04:03;5.05;;;3.67;;
60076;SDS011;45950;45.208;20.374;2022-07-23T01:06:30;6.00;;;3.90;;
60076;SDS011;45950;45.208;20.374;2022-07-23T01:08:59;6.20;;;4.65;;
60076;SDS011;45950;45.208;20.374;2022-07-23T01:11:26;6.65;;;4.53;;
60076;SDS011;45950;45.208;20.374;2022-07-23T01:13:55;6.88;;;4.25;;
60076;SDS011;45950;45.208;20.374;2022-07-23T01:16:22;7.20;;;4.07;;
60076;SDS011;45950;45.208;20.374;2022-07-23T01:18:48;7.13;;;4.00;;
60076;SDS011;45950;45.208;20.374;2022-07-23T01:21:15;6.22;;;3.40;;
60076;SDS011;45950;45.208;20.374;2022-07-23T01:23:45;6.18;;;4.35;;
60076;SDS011;45950;45.208;20.374;2022-07-23T01:26:12;7.28;;;3.95;;
60076;SDS011;45950;45.208;20.374;2022-07-23T01:28:42;7.15;;;4.53;;
60076;SDS011;45950;45.208;20.374;2022-07-23T01:31:09;6.78;;;4.00;;
60076;SDS011;45950;45.208;20.374;2022-07-23T01:33:35;8.18;;;4.55;;
60076;SDS011;45950;45.208;20.374;2022-07-23T01:36:02;7.20;;;4.18;;
60076;SDS011;45950;45.208;20.374;2022-07-23T01:38:29;9.35;;;4.22;;
60076;SDS011;45950;45.208;20.374;2022-07-23T01:40:57;5.32;;;3.65;;
60076;SDS011;45950;45.208;20.374;2022-07-23T01:43:24;8.15;;;4.15;;
60076;SDS011;45950;45.208;20.374;2022-07-23T01:45:50;7.50;;;4.03;;
60076;SDS011;45950;45.208;20.374;2022-07-23T01:48:17;9.60;;;4.50;;
60076;SDS011;45950;45.208;20.374;2022-07-23T01:50:45;6.78;;;4.20;;
60076;SDS011;45950;45.208;20.374;2022-07-23T01:53:12;7.35;;;4.32;;
60076;SDS011;45950;45.208;20.374;2022-07-23T01:55:39;7.78;;;4.57;;
60076;SDS011;45950;45.208;20.374;2022-07-23T01:58:07;5.30;;;3.88;;
60076;SDS011;45950;45.208;20.374;2022-07-23T02:00:34;9.10;;;4.07;;
60076;SDS011;45950;45.208;20.374;2022-07-23T02:03:01;8.15;;;4.32;;
60076;SDS011;45950;45.208;20.374;2022-07-23T02:05:28;7.80;;;4.20;;
60076;SDS011;45950;45.208;20.374;2022-07-23T02:07:55;9.57;;;4.82;;
60076;SDS011;45950;45.208;20.374;2022-07-23T02:10:22;5.40;;;3.88;;
60076;SDS011;45950;45.208;20.374;2022-07-23T02:12:48;7.55;;;4.30;;
60076;SDS011;45950;45.208;20.374;2022-07-23T02:15:17;4.80;;;3.03;;
60076;SDS011;45950;45.208;20.374;2022-07-23T02:17:43;6.63;;;3.30;;
60076;SDS011;45950;45.208;20.374;2022-07-23T02:20:10;6.47;;;3.58;;
60076;SDS011;45950;45.208;20.374;2022-07-23T02:22:37;4.38;;;3.05;;
60076;SDS011;45950;45.208;20.374;2022-07-23T02:25:05;8.13;;;4.03;;
60076;SDS011;45950;45.208;20.374;2022-07-23T02:27:32;12.52;;;4.10;;
60076;SDS011;45950;45.208;20.374;2022-07-23T02:29:58;8.35;;;4.30;;
60076;SDS011;45950;45.208;20.374;2022-07-23T02:32:27;5.95;;;3.88;;
60076;SDS011;45950;45.208;20.374;2022-07-23T02:34:53;6.18;;;3.53;;
60076;SDS011;45950;45.208;20.374;2022-07-23T02:37:20;6.18;;;3.83;;
60076;SDS011;45950;45.208;20.374;2022-07-23T02:39:47;6.50;;;3.67;;
60076;SDS011;45950;45.208;20.374;2022-07-23T02:42:14;10.10;;;4.47;;
60076;SDS011;45950;45.208;20.374;2022-07-23T02:44:40;6.03;;;3.72;;
60076;SDS011;45950;45.208;20.374;2022-07-23T02:47:07;6.07;;;3.70;;
60076;SDS011;45950;45.208;20.374;2022-07-23T02:49:35;6.47;;;3.70;;
60076;SDS011;45950;45.208;20.374;2022-07-23T02:52:02;6.03;;;4.32;;
60076;SDS011;45950;45.208;20.374;2022-07-23T02:54:29;5.55;;;3.67;;
60076;SDS011;45950;45.208;20.374;2022-07-23T02:56:56;6.32;;;3.92;;
60076;SDS011;45950;45.208;20.374;2022-07-23T02:59:23;7.47;;;4.47;;
60076;SDS011;45950;45.208;20.374;2022-07-23T03:01:49;5.63;;;3.85;;
60076;SDS011;45950;45.208;20.374;2022-07-23T03:04:16;7.60;;;5.03;;
60076;SDS011;45950;45.208;20.374;2022-07-23T03:06:44;6.97;;;4.22;;
60076;SDS011;45950;45.208;20.374;2022-07-23T03:09:11;5.95;;;3.65;;
60076;SDS011;45950;45.208;20.374;2022-07-23T03:11:38;6.00;;;4.13;;
60076;SDS011;45950;45.208;20.374;2022-07-23T03:14:04;5.65;;;3.63;;
60076;SDS011;45950;45.208;20.374;2022-07-23T03:16:32;7.82;;;4.63;;
60076;SDS011;45950;45.208;20.374;2022-07-23T03:18:59;8.00;;;5.85;;
60076;SDS011;45950;45.208;20.374;2022-07-23T03:21:26;13.80;;;5.45;;
60076;SDS011;45950;45.208;20.374;2022-07-23T03:23:54;8.82;;;4.65;;
60076;SDS011;45950;45.208;20.374;2022-07-23T03:26:21;6.32;;;3.97;;
60076;SDS011;45950;45.208;20.374;2022-07-23T03:28:50;9.27;;;5.30;;
60076;SDS011;45950;45.208;20.374;2022-07-23T03:31:17;11.10;;;4.85;;
60076;SDS011;45950;45.208;20.374;2022-07-23T03:33:44;8.90;;;3.50;;
60076;SDS011;45950;45.208;20.374;2022-07-23T03:36:10;9.90;;;5.00;;
60076;SDS011;45950;45.208;20.374;2022-07-23T03:38:37;7.90;;;4.38;;
60076;SDS011;45950;45.208;20.374;2022-07-23T03:41:05;9.15;;;4.45;;
60076;SDS011;45950;45.208;20.374;2022-07-23T03:43:32;9.63;;;4.90;;
60076;SDS011;45950;45.208;20.374;2022-07-23T03:45:59;15.60;;;6.63;;
60076;SDS011;45950;45.208;20.374;2022-07-23T03:48:29;12.15;;;8.32;;
60076;SDS011;45950;45.208;20.374;2022-07-23T03:50:55;17.55;;;10.98;;
60076;SDS011;45950;45.208;20.374;2022-07-23T03:53:22;16.35;;;10.50;;
60076;SDS011;45950;45.208;20.374;2022-07-23T03:55:49;13.63;;;8.73;;
60076;SDS011;45950;45.208;20.374;2022-07-23T03:58:17;15.50;;;9.18;;
60076;SDS011;45950;45.208;20.374;2022-07-23T04:00:44;17.35;;;8.95;;
60076;SDS011;45950;45.208;20.374;2022-07-23T04:03:11;16.63;;;8.93;;
60076;SDS011;45950;45.208;20.374;2022-07-23T04:05:38;12.90;;;7.00;;
60076;SDS011;45950;45.208;20.374;2022-07-23T04:08:04;12.63;;;6.72;;
60076;SDS011;45950;45.208;20.374;2022-07-23T04:10:31;11.32;;;6.45;;
60076;SDS011;45950;45.208;20.374;2022-07-23T04:12:58;10.07;;;6.32;;
60076;SDS011;45950;45.208;20.374;2022-07-23T04:15:26;14.27;;;7.20;;
60076;SDS011;45950;45.208;20.374;2022-07-23T04:17:53;9.85;;;6.50;;
60076;SDS011;45950;45.208;20.374;2022-07-23T04:20:20;11.50;;;7.47;;
60076;SDS011;45950;45.208;20.374;2022-07-23T04:22:47;12.52;;;6.88;;
60076;SDS011;45950;45.208;20.374;2022-07-23T04:25:13;11.45;;;7.10;;
60076;SDS011;45950;45.208;20.374;2022-07-23T04:27:41;15.50;;;7.45;;
60076;SDS011;45950;45.208;20.374;2022-07-23T04:30:08;15.88;;;7.63;;
60076;SDS011;45950;45.208;20.374;2022-07-23T04:32:37;9.07;;;6.55;;
60076;SDS011;45950;45.208;20.374;2022-07-23T04:35:04;12.25;;;6.70;;
60076;SDS011;45950;45.208;20.374;2022-07-23T04:37:31;11.60;;;6.50;;
60076;SDS011;45950;45.208;20.374;2022-07-23T04:39:58;10.82;;;6.90;;
60076;SDS011;45950;45.208;20.374;2022-07-23T04:42:24;13.10;;;7.50;;
60076;SDS011;45950;45.208;20.374;2022-07-23T04:44:51;13.52;;;7.18;;
60076;SDS011;45950;45.208;20.374;2022-07-23T04:47:18;12.23;;;8.10;;
60076;SDS011;45950;45.208;20.374;2022-07-23T04:49:46;10.13;;;6.43;;
60076;SDS011;45950;45.208;20.374;2022-07-23T04:52:13;10.45;;;6.65;;
60076;SDS011;45950;45.208;20.374;2022-07-23T04:54:40;9.98;;;6.80;;
60076;SDS011;45950;45.208;20.374;2022-07-23T04:57:07;13.40;;;6.90;;
60076;SDS011;45950;45.208;20.374;2022-07-23T04:59:34;13.52;;;7.10;;
60076;SDS011;45950;45.208;20.374;2022-07-23T05:02:00;8.65;;;6.13;;
60076;SDS011;45950;45.208;20.374;2022-07-23T05:04:27;13.20;;;6.07;;
60076;SDS011;45950;45.208;20.374;2022-07-23T05:06:55;11.55;;;6.30;;
60076;SDS011;45950;45.208;20.374;2022-07-23T05:09:26;11.15;;;6.00;;
60076;SDS011;45950;45.208;20.374;2022-07-23T05:11:57;7.90;;;5.88;;
60076;SDS011;45950;45.208;20.374;2022-07-23T05:14:23;11.98;;;5.50;;
60076;SDS011;45950;45.208;20.374;2022-07-23T05:16:50;14.60;;;7.80;;
60076;SDS011;45950;45.208;20.374;2022-07-23T05:19:17;10.32;;;5.38;;
60076;SDS011;45950;45.208;20.374;2022-07-23T05:21:44;11.15;;;5.57;;
60076;SDS011;45950;45.208;20.374;2022-07-23T05:24:12;10.85;;;5.82;;
60076;SDS011;45950;45.208;20.374;2022-07-23T05:26:39;7.03;;;5.35;;
60076;SDS011;45950;45.208;20.374;2022-07-23T05:29:05;17.33;;;6.15;;
60076;SDS011;45950;45.208;20.374;2022-07-23T05:31:32;10.63;;;6.45;;
60076;SDS011;45950;45.208;20.374;2022-07-23T05:33:59;11.50;;;5.40;;
60076;SDS011;45950;45.208;20.374;2022-07-23T05:36:26;12.13;;;5.90;;
60076;SDS011;45950;45.208;20.374;2022-07-23T05:38:52;8.75;;;5.22;;
60076;SDS011;45950;45.208;20.374;2022-07-23T05:41:21;7.50;;;5.60;;
60076;SDS011;45950;45.208;20.374;2022-07-23T05:43:47;9.43;;;5.65;;
60076;SDS011;45950;45.208;20.374;2022-07-23T05:46:14;11.05;;;5.32;;
60076;SDS011;45950;45.208;20.374;2022-07-23T05:48:41;11.02;;;5.45;;
60076;SDS011;45950;45.208;20.374;2022-07-23T05:51:07;11.55;;;5.97;;
60076;SDS011;45950;45.208;20.374;2022-07-23T05:53:34;18.00;;;6.50;;
60076;SDS011;45950;45.208;20.374;2022-07-23T05:56:01;14.93;;;5.38;;
60076;SDS011;45950;45.208;20.374;2022-07-23T05:58:30;10.93;;;5.45;;
60076;SDS011;45950;45.208;20.374;2022-07-23T06:00:56;9.60;;;5.57;;
60076;SDS011;45950;45.208;20.374;2022-07-23T06:03:23;10.65;;;5.88;;
60076;SDS011;45950;45.208;20.374;2022-07-23T06:05:51;12.27;;;5.55;;
60076;SDS011;45950;45.208;20.374;2022-07-23T06:08:17;9.13;;;5.78;;
60076;SDS011;45950;45.208;20.374;2022-07-23T06:10:44;8.70;;;5.28;;
60076;SDS011;45950;45.208;20.374;2022-07-23T06:13:11;8.50;;;5.18;;
60076;SDS011;45950;45.208;20.374;2022-07-23T06:15:39;11.35;;;5.53;;
60076;SDS011;45950;45.208;20.374;2022-07-23T06:18:06;9.02;;;4.82;;
60076;SDS011;45950;45.208;20.374;2022-07-23T06:20:33;9.68;;;5.22;;
60076;SDS011;45950;45.208;20.374;2022-07-23T06:22:59;9.85;;;5.57;;
60076;SDS011;45950;45.208;20.374;2022-07-23T06:25:26;9.65;;;4.93;;
60076;SDS011;45950;45.208;20.374;2022-07-23T06:27:53;7.82;;;4.38;;
60076;SDS011;45950;45.208;20.374;2022-07-23T06:30:20;10.27;;;4.97;;
60076;SDS011;45950;45.208;20.374;2022-07-23T06:32:48;9.77;;;4.78;;
60076;SDS011;45950;45.208;20.374;2022-07-23T06:35:15;8.18;;;5.30;;
60076;SDS011;45950;45.208;20.374;2022-07-23T06:37:42;8.82;;;5.38;;
60076;SDS011;45950;45.208;20.374;2022-07-23T06:40:09;10.80;;;5.82;;
60076;SDS011;45950;45.208;20.374;2022-07-23T06:42:36;7.63;;;5.05;;
60076;SDS011;45950;45.208;20.374;2022-07-23T06:45:04;8.90;;;5.00;;
60076;SDS011;45950;45.208;20.374;2022-07-23T06:47:31;7.68;;;5.22;;
60076;SDS011;45950;45.208;20.374;2022-07-23T06:49:59;7.78;;;4.93;;
60076;SDS011;45950;45.208;20.374;2022-07-23T06:52:26;9.10;;;5.20;;
60076;SDS011;45950;45.208;20.374;2022-07-23T06:54:53;9.45;;;4.90;;
60076;SDS011;45950;45.208;20.374;2022-07-23T06:57:19;9.20;;;5.20;;
60076;SDS011;45950;45.208;20.374;2022-07-23T06:59:46;10.93;;;5.00;;
60076;SDS011;45950;45.208;20.374;2022-07-23T07:02:13;9.05;;;4.95;;
60076;SDS011;45950;45.208;20.374;2022-07-23T07:04:40;12.73;;;4.80;;
60076;SDS011;45950;45.208;20.374;2022-07-23T07:07:08;7.57;;;4.78;;
60076;SDS011;45950;45.208;20.374;2022-07-23T07:09:34;8.02;;;4.95;;
60076;SDS011;45950;45.208;20.374;2022-07-23T07:12:01;10.32;;;4.80;;
60076;SDS011;45950;45.208;20.374;2022-07-23T07:14:28;7.90;;;4.45;;
60076;SDS011;45950;45.208;20.374;2022-07-23T07:16:55;12.95;;;5.03;;
60076;SDS011;45950;45.208;20.374;2022-07-23T07:19:21;9.02;;;5.00;;
60076;SDS011;45950;45.208;20.374;2022-07-23T07:21:48;10.10;;;4.93;;
60076;SDS011;45950;45.208;20.374;2022-07-23T07:24:16;9.45;;;5.30;;
60076;SDS011;45950;45.208;20.374;2022-07-23T07:26:43;7.88;;;4.50;;
60076;SDS011;45950;45.208;20.374;2022-07-23T07:29:10;7.35;;;4.03;;
60076;SDS011;45950;45.208;20.374;2022-07-23T07:31:36;7.50;;;4.72;;
60076;SDS011;45950;45.208;20.374;2022-07-23T07:34:03;7.53;;;4.47;;
60076;SDS011;45950;45.208;20.374;2022-07-23T07:36:30;12.63;;;5.10;;
60076;SDS011;45950;45.208;20.374;2022-07-23T07:38:58;8.57;;;4.82;;
60076;SDS011;45950;45.208;20.374;2022-07-23T07:41:26;8.13;;;4.82;;
60076;SDS011;45950;45.208;20.374;2022-07-23T07:43:52;7.00;;;4.88;;
60076;SDS011;45950;45.208;20.374;2022-07-23T07:46:19;11.27;;;5.32;;
60076;SDS011;45950;45.208;20.374;2022-07-23T07:48:46;6.53;;;4.40;;
60076;SDS011;45950;45.208;20.374;2022-07-23T07:51:13;6.53;;;4.20;;
60076;SDS011;45950;45.208;20.374;2022-07-23T07:53:39;7.90;;;4.50;;
60076;SDS011;45950;45.208;20.374;2022-07-23T07:56:06;7.70;;;5.22;;
60076;SDS011;45950;45.208;20.374;2022-07-23T07:58:34;8.57;;;5.47;;
60076;SDS011;45950;45.208;20.374;2022-07-23T08:01:01;8.88;;;4.60;;
60076;SDS011;45950;45.208;20.374;2022-07-23T08:03:28;10.60;;;4.40;;
60076;SDS011;45950;45.208;20.374;2022-07-23T08:05:55;8.98;;;4.53;;
60076;SDS011;45950;45.208;20.374;2022-07-23T08:08:21;11.05;;;4.40;;
60076;SDS011;45950;45.208;20.374;2022-07-23T08:10:48;11.55;;;5.07;;
60076;SDS011;45950;45.208;20.374;2022-07-23T08:13:15;7.05;;;4.85;;
60076;SDS011;45950;45.208;20.374;2022-07-23T08:15:44;8.82;;;4.47;;
60076;SDS011;45950;45.208;20.374;2022-07-23T08:18:10;5.30;;;4.18;;
60076;SDS011;45950;45.208;20.374;2022-07-23T08:20:37;8.68;;;5.20;;
60076;SDS011;45950;45.208;20.374;2022-07-23T08:23:04;7.10;;;4.20;;
60076;SDS011;45950;45.208;20.374;2022-07-23T08:25:32;11.32;;;5.20;;
60076;SDS011;45950;45.208;20.374;2022-07-23T08:27:59;9.45;;;4.70;;
60076;SDS011;45950;45.208;20.374;2022-07-23T08:30:26;6.45;;;4.60;;
60076;SDS011;45950;45.208;20.374;2022-07-23T08:32:56;6.30;;;4.80;;
60076;SDS011;45950;45.208;20.374;2022-07-23T08:35:25;11.73;;;4.30;;
60076;SDS011;45950;45.208;20.374;2022-07-23T08:37:52;6.78;;;4.93;;
60076;SDS011;45950;45.208;20.374;2022-07-23T08:40:19;9.80;;;4.50;;
60076;SDS011;45950;45.208;20.374;2022-07-23T08:42:47;6.15;;;4.70;;
60076;SDS011;45950;45.208;20.374;2022-07-23T08:45:13;6.38;;;4.15;;
60076;SDS011;45950;45.208;20.374;2022-07-23T08:47:42;10.18;;;4.32;;
60076;SDS011;45950;45.208;20.374;2022-07-23T08:50:11;6.82;;;3.60;;
60076;SDS011;45950;45.208;20.374;2022-07-23T08:52:37;7.63;;;4.40;;
60076;SDS011;45950;45.208;20.374;2022-07-23T08:55:05;6.80;;;4.00;;
60076;SDS011;45950;45.208;20.374;2022-07-23T08:57:32;6.75;;;4.18;;
60076;SDS011;45950;45.208;20.374;2022-07-23T08:59:59;6.80;;;4.03;;
60076;SDS011;45950;45.208;20.374;2022-07-23T09:02:25;7.25;;;4.50;;
60076;SDS011;45950;45.208;20.374;2022-07-23T09:04:52;8.10;;;4.20;;
60076;SDS011;45950;45.208;20.374;2022-07-23T09:07:20;12.38;;;4.15;;
60076;SDS011;45950;45.208;20.374;2022-07-23T09:09:48;6.00;;;3.65;;
60076;SDS011;45950;45.208;20.374;2022-07-23T09:12:30;5.47;;;3.33;;
60076;SDS011;45950;45.208;20.374;2022-07-23T09:14:57;8.27;;;4.25;;
60076;SDS011;45950;45.208;20.374;2022-07-23T09:17:29;6.88;;;3.80;;
60076;SDS011;45950;45.208;20.374;2022-07-23T09:20:07;5.82;;;2.97;;
60076;SDS011;45950;45.208;20.374;2022-07-23T09:22:35;7.15;;;3.20;;
60076;SDS011;45950;45.208;20.374;2022-07-23T09:25:06;5.78;;;3.30;;
60076;SDS011;45950;45.208;20.374;2022-07-23T09:27:45;6.13;;;3.33;;
60076;SDS011;45950;45.208;20.374;2022-07-23T09:30:12;4.03;;;3.22;;
60076;SDS011;45950;45.208;20.374;2022-07-23T09:32:39;4.15;;;3.35;;
60076;SDS011;45950;45.208;20.374;2022-07-23T09:35:06;6.13;;;3.30;;
60076;SDS011;45950;45.208;20.374;2022-07-23T09:37:33;6.25;;;3.10;;
60076;SDS011;45950;45.208;20.374;2022-07-23T09:40:04;8.27;;;3.63;;
60076;SDS011;45950;45.208;20.374;2022-07-23T09:42:32;6.03;;;3.70;;
60076;SDS011;45950;45.208;20.374;2022-07-23T09:44:59;4.43;;;3.40;;
60076;SDS011;45950;45.208;20.374;2022-07-23T09:47:26;6.90;;;3.25;;
60076;SDS011;45950;45.208;20.374;2022-07-23T09:50:00;5.18;;;3.13;;
60076;SDS011;45950;45.208;20.374;2022-07-23T09:52:29;4.88;;;3.13;;
60076;SDS011;45950;45.208;20.374;2022-07-23T09:54:58;7.18;;;3.28;;
60076;SDS011;45950;45.208;20.374;2022-07-23T09:57:27;4.60;;;2.85;;
60076;SDS011;45950;45.208;20.374;2022-07-23T09:59:55;4.15;;;2.88;;
60076;SDS011;45950;45.208;20.374;2022-07-23T10:02:23;7.55;;;3.45;;
60076;SDS011;45950;45.208;20.374;2022-07-23T10:04:50;7.10;;;3.10;;
60076;SDS011;45950;45.208;20.374;2022-07-23T10:07:18;4.63;;;3.08;;
60076;SDS011;45950;45.208;20.374;2022-07-23T10:09:46;4.85;;;3.15;;
60076;SDS011;45950;45.208;20.374;2022-07-23T10:12:14;5.40;;;2.78;;
60076;SDS011;45950;45.208;20.374;2022-07-23T10:14:49;5.18;;;2.90;;
60076;SDS011;45950;45.208;20.374;2022-07-23T10:17:16;5.57;;;2.90;;
60076;SDS011;45950;45.208;20.374;2022-07-23T10:19:43;5.72;;;3.20;;
60076;SDS011;45950;45.208;20.374;2022-07-23T10:22:10;6.78;;;3.17;;
60076;SDS011;45950;45.208;20.374;2022-07-23T10:24:41;6.50;;;2.83;;
60076;SDS011;45950;45.208;20.374;2022-07-23T10:27:22;5.30;;;2.70;;
60076;SDS011;45950;45.208;20.374;2022-07-23T10:29:55;5.65;;;3.42;;
60076;SDS011;45950;45.208;20.374;2022-07-23T10:32:26;6.13;;;3.13;;
60076;SDS011;45950;45.208;20.374;2022-07-23T10:34:58;7.13;;;3.50;;
60076;SDS011;45950;45.208;20.374;2022-07-23T10:40:08;5.05;;;2.90;;
60076;SDS011;45950;45.208;20.374;2022-07-23T10:42:35;5.07;;;2.95;;
60076;SDS011;45950;45.208;20.374;2022-07-23T10:45:06;5.97;;;3.38;;
60076;SDS011;45950;45.208;20.374;2022-07-23T10:47:48;3.72;;;2.65;;
60076;SDS011;45950;45.208;20.374;2022-07-23T10:50:20;4.68;;;3.17;;
60076;SDS011;45950;45.208;20.374;2022-07-23T10:55:41;6.35;;;3.08;;
60076;SDS011;45950;45.208;20.374;2022-07-23T10:58:08;5.55;;;3.00;;
60076;SDS011;45950;45.208;20.374;2022-07-23T11:00:37;4.97;;;2.92;;
60076;SDS011;45950;45.208;20.374;2022-07-23T11:03:04;7.03;;;3.65;;
60076;SDS011;45950;45.208;20.374;2022-07-23T11:05:41;7.38;;;3.20;;
60076;SDS011;45950;45.208;20.374;2022-07-23T11:08:13;4.13;;;3.40;;
60076;SDS011;45950;45.208;20.374;2022-07-23T11:10:42;4.85;;;3.40;;
60076;SDS011;45950;45.208;20.374;2022-07-23T11:16:10;5.85;;;3.67;;
60076;SDS011;45950;45.208;20.374;2022-07-23T11:21:41;5.10;;;3.85;;
60076;SDS011;45950;45.208;20.374;2022-07-23T11:24:09;7.05;;;3.72;;
60076;SDS011;45950;45.208;20.374;2022-07-23T11:26:46;4.78;;;3.28;;
60076;SDS011;45950;45.208;20.374;2022-07-23T11:32:02;7.07;;;3.35;;
60076;SDS011;45950;45.208;20.374;2022-07-23T11:34:30;6.57;;;3.45;;
60076;SDS011;45950;45.208;20.374;2022-07-23T11:36:57;10.73;;;3.33;;
60076;SDS011;45950;45.208;20.374;2022-07-23T11:39:25;5.97;;;3.03;;
60076;SDS011;45950;45.208;20.374;2022-07-23T11:41:52;5.28;;;3.00;;
60076;SDS011;45950;45.208;20.374;2022-07-23T11:44:25;5.38;;;3.13;;
60076;SDS011;45950;45.208;20.374;2022-07-23T11:49:20;3.97;;;2.78;;
60076;SDS011;45950;45.208;20.374;2022-07-23T11:51:46;8.98;;;3.53;;
60076;SDS011;45950;45.208;20.374;2022-07-23T11:54:13;5.20;;;3.60;;
60076;SDS011;45950;45.208;20.374;2022-07-23T11:56:54;4.57;;;2.90;;
60076;SDS011;45950;45.208;20.374;2022-07-23T11:59:21;7.43;;;3.55;;
60076;SDS011;45950;45.208;20.374;2022-07-23T12:01:55;6.63;;;3.50;;
60076;SDS011;45950;45.208;20.374;2022-07-23T12:04:23;4.38;;;2.70;;
60076;SDS011;45950;45.208;20.374;2022-07-23T12:06:50;6.22;;;3.40;;
60076;SDS011;45950;45.208;20.374;2022-07-23T12:09:17;7.00;;;4.13;;
60076;SDS011;45950;45.208;20.374;2022-07-23T12:11:56;3.88;;;3.03;;
60076;SDS011;45950;45.208;20.374;2022-07-23T12:14:23;5.05;;;2.65;;
60076;SDS011;45950;45.208;20.374;2022-07-23T12:19:32;5.05;;;3.03;;
60076;SDS011;45950;45.208;20.374;2022-07-23T12:21:59;4.97;;;2.90;;
60076;SDS011;45950;45.208;20.374;2022-07-23T12:24:26;5.47;;;2.97;;
60076;SDS011;45950;45.208;20.374;2022-07-23T12:27:08;3.35;;;2.67;;
60076;SDS011;45950;45.208;20.374;2022-07-23T12:29:35;5.15;;;3.13;;
60076;SDS011;45950;45.208;20.374;2022-07-23T12:32:02;3.85;;;2.60;;
60076;SDS011;45950;45.208;20.374;2022-07-23T12:34:42;4.35;;;2.65;;
60076;SDS011;45950;45.208;20.374;2022-07-23T12:37:23;4.57;;;2.92;;
60076;SDS011;45950;45.208;20.374;2022-07-23T12:39:51;6.15;;;3.08;;
60076;SDS011;45950;45.208;20.374;2022-07-23T12:42:17;4.93;;;3.25;;
60076;SDS011;45950;45.208;20.374;2022-07-23T12:47:26;7.35;;;3.22;;
60076;SDS011;45950;45.208;20.374;2022-07-23T12:49:54;4.45;;;2.88;;
60076;SDS011;45950;45.208;20.374;2022-07-23T12:52:21;4.85;;;3.15;;
60076;SDS011;45950;45.208;20.374;2022-07-23T12:54:47;3.85;;;3.45;;
60076;SDS011;45950;45.208;20.374;2022-07-23T12:57:14;6.00;;;3.22;;
60076;SDS011;45950;45.208;20.374;2022-07-23T12:59:41;6.03;;;3.40;;
60076;SDS011;45950;45.208;20.374;2022-07-23T13:02:08;5.38;;;3.20;;
60076;SDS011;45950;45.208;20.374;2022-07-23T13:04:34;7.97;;;3.15;;
60076;SDS011;45950;45.208;20.374;2022-07-23T13:07:02;5.20;;;2.83;;
60076;SDS011;45950;45.208;20.374;2022-07-23T13:09:30;4.47;;;2.92;;
60076;SDS011;45950;45.208;20.374;2022-07-23T13:11:57;10.50;;;3.20;;
60076;SDS011;45950;45.208;20.374;2022-07-23T13:14:24;5.60;;;3.30;;
60076;SDS011;45950;45.208;20.374;2022-07-23T13:16:51;4.28;;;3.33;;
60076;SDS011;45950;45.208;20.374;2022-07-23T13:19:19;4.85;;;2.90;;
60076;SDS011;45950;45.208;20.374;2022-07-23T13:21:47;5.45;;;3.25;;
60076;SDS011;45950;45.208;20.374;2022-07-23T13:24:16;5.00;;;3.33;;
60076;SDS011;45950;45.208;20.374;2022-07-23T13:26:42;3.92;;;3.13;;
60076;SDS011;45950;45.208;20.374;2022-07-23T13:29:11;8.32;;;3.67;;
60076;SDS011;45950;45.208;20.374;2022-07-23T13:31:38;5.90;;;2.90;;
60076;SDS011;45950;45.208;20.374;2022-07-23T13:34:05;4.60;;;3.03;;
60076;SDS011;45950;45.208;20.374;2022-07-23T13:36:33;6.07;;;3.85;;
60076;SDS011;45950;45.208;20.374;2022-07-23T13:38:59;7.00;;;3.28;;
60076;SDS011;45950;45.208;20.374;2022-07-23T13:41:28;7.10;;;3.30;;
60076;SDS011;45950;45.208;20.374;2022-07-23T13:43:55;5.40;;;3.20;;
60076;SDS011;45950;45.208;20.374;2022-07-23T13:46:22;5.70;;;3.35;;
60076;SDS011;45950;45.208;20.374;2022-07-23T13:48:49;7.57;;;3.63;;
60076;SDS011;45950;45.208;20.374;2022-07-23T13:51:15;6.72;;;3.97;;
60076;SDS011;45950;45.208;20.374;2022-07-23T13:53:43;7.68;;;4.22;;
60076;SDS011;45950;45.208;20.374;2022-07-23T13:56:09;6.82;;;3.92;;
60076;SDS011;45950;45.208;20.374;2022-07-23T13:58:38;6.80;;;3.88;;
60076;SDS011;45950;45.208;20.374;2022-07-23T14:01:05;4.20;;;3.53;;
60076;SDS011;45950;45.208;20.374;2022-07-23T14:03:32;4.43;;;3.60;;
60076;SDS011;45950;45.208;20.374;2022-07-23T14:05:59;6.65;;;3.38;;
60076;SDS011;45950;45.208;20.374;2022-07-23T14:08:25;5.15;;;3.40;;
60076;SDS011;45950;45.208;20.374;2022-07-23T14:10:52;6.30;;;4.10;;
60076;SDS011;45950;45.208;20.374;2022-07-23T14:13:19;4.82;;;3.15;;
60076;SDS011;45950;45.208;20.374;2022-07-23T14:15:47;7.07;;;4.18;;
60076;SDS011;45950;45.208;20.374;2022-07-23T14:18:14;8.18;;;4.47;;
60076;SDS011;45950;45.208;20.374;2022-07-23T14:20:42;8.23;;;4.07;;
60076;SDS011;45950;45.208;20.374;2022-07-23T14:23:08;7.25;;;3.80;;
60076;SDS011;45950;45.208;20.374;2022-07-23T14:25:36;5.60;;;3.75;;
60076;SDS011;45950;45.208;20.374;2022-07-23T14:28:03;6.50;;;3.20;;
60076;SDS011;45950;45.208;20.374;2022-07-23T14:30:29;5.25;;;3.38;;
60076;SDS011;45950;45.208;20.374;2022-07-23T14:32:58;4.97;;;3.65;;
60076;SDS011;45950;45.208;20.374;2022-07-23T14:35:25;5.95;;;3.67;;
60076;SDS011;45950;45.208;20.374;2022-07-23T14:37:51;7.75;;;3.35;;
60076;SDS011;45950;45.208;20.374;2022-07-23T14:40:18;6.40;;;3.47;;
60076;SDS011;45950;45.208;20.374;2022-07-23T14:42:45;7.10;;;4.00;;
60076;SDS011;45950;45.208;20.374;2022-07-23T14:45:11;5.43;;;3.72;;
60076;SDS011;45950;45.208;20.374;2022-07-23T14:47:38;6.38;;;3.83;;
60076;SDS011;45950;45.208;20.374;2022-07-23T14:50:07;5.18;;;4.15;;
60076;SDS011;45950;45.208;20.374;2022-07-23T14:52:34;10.65;;;4.13;;
60076;SDS011;45950;45.208;20.374;2022-07-23T14:55:01;6.80;;;4.55;;